sensor_id;sensor_type;location;lat;lon;timestamp;P1;durP1;ratioP1;P2;durP2;ratioP2
73113;SDS011;61301;51.956;5.876;2023-08-31T00:00:43;0.45;;;0.40;;
73113;SDS011;61301;51.956;5.876;2023-08-31T00:03:12;0.50;;;0.32;;
73113;SDS011;61301;51.956;5.876;2023-08-31T00:05:42;0.80;;;0.50;;
73113;SDS011;61301;51.956;5.876;2023-08-31T00:08:09;1.15;;;0.40;;
73113;SDS011;61301;51.956;5.876;2023-08-31T00:10:37;0.55;;;0.52;;
73113;SDS011;61301;51.956;5.876;2023-08-31T00:13:03;2.47;;;0.30;;
73113;SDS011;61301;51.956;5.876;2023-08-31T00:15:30;0.40;;;0.30;;
73113;SDS011;61301;51.956;5.876;2023-08-31T00:17:58;0.40;;;0.28;;
73113;SDS011;61301;51.956;5.876;2023-08-31T00:20:25;0.20;;;0.20;;
73113;SDS011;61301;51.956;5.876;2023-08-31T00:22:52;0.35;;;0.30;;
73113;SDS011;61301;51.956;5.876;2023-08-31T00:25:18;0.52;;;0.52;;
73113;SDS011;61301;51.956;5.876;2023-08-31T00:27:44;0.68;;;0.52;;
73113;SDS011;61301;51.956;5.876;2023-08-31T00:30:14;0.57;;;0.50;;
73113;SDS011;61301;51.956;5.876;2023-08-31T00:32:41;1.38;;;0.88;;
73113;SDS011;61301;51.956;5.876;2023-08-31T00:35:11;0.85;;;0.68;;
73113;SDS011;61301;51.956;5.876;2023-08-31T00:37:37;0.50;;;0.50;;
73113;SDS011;61301;51.956;5.876;2023-08-31T00:40:04;0.88;;;0.50;;
73113;SDS011;61301;51.956;5.876;2023-08-31T00:42:31;1.25;;;0.70;;
73113;SDS011;61301;51.956;5.876;2023-08-31T00:44:58;1.40;;;0.65;;
73113;SDS011;61301;51.956;5.876;2023-08-31T00:47:24;1.23;;;1.00;;
73113;SDS011;61301;51.956;5.876;2023-08-31T00:49:50;1.58;;;0.95;;
73113;SDS011;61301;51.956;5.876;2023-08-31T00:52:16;0.55;;;0.55;;
73113;SDS011;61301;51.956;5.876;2023-08-31T00:54:46;1.42;;;0.80;;
73113;SDS011;61301;51.956;5.876;2023-08-31T00:57:17;0.68;;;0.68;;
73113;SDS011;61301;51.956;5.876;2023-08-31T00:59:43;0.77;;;0.70;;
73113;SDS011;61301;51.956;5.876;2023-08-31T01:02:11;1.75;;;0.88;;
73113;SDS011;61301;51.956;5.876;2023-08-31T01:07:53;1.38;;;0.90;;
73113;SDS011;61301;51.956;5.876;2023-08-31T01:10:57;0.50;;;0.50;;
73113;SDS011;61301;51.956;5.876;2023-08-31T01:13:32;2.15;;;1.45;;
73113;SDS011;61301;51.956;5.876;2023-08-31T01:16:03;1.60;;;1.20;;
73113;SDS011;61301;51.956;5.876;2023-08-31T01:18:32;1.40;;;1.30;;
73113;SDS011;61301;51.956;5.876;2023-08-31T01:23:49;1.48;;;1.20;;
73113;SDS011;61301;51.956;5.876;2023-08-31T01:26:22;1.58;;;1.40;;
73113;SDS011;61301;51.956;5.876;2023-08-31T01:28:50;1.85;;;1.15;;
73113;SDS011;61301;51.956;5.876;2023-08-31T01:31:16;1.40;;;1.10;;
73113;SDS011;61301;51.956;5.876;2023-08-31T01:33:43;2.88;;;1.70;;
73113;SDS011;61301;51.956;5.876;2023-08-31T01:36:14;2.30;;;1.63;;
73113;SDS011;61301;51.956;5.876;2023-08-31T01:38:47;3.10;;;2.33;;
73113;SDS011;61301;51.956;5.876;2023-08-31T01:41:16;1.88;;;1.67;;
73113;SDS011;61301;51.956;5.876;2023-08-31T01:43:44;3.05;;;2.05;;
73113;SDS011;61301;51.956;5.876;2023-08-31T01:46:13;1.55;;;1.45;;
73113;SDS011;61301;51.956;5.876;2023-08-31T01:48:40;4.55;;;2.03;;
73113;SDS011;61301;51.956;5.876;2023-08-31T01:51:07;2.25;;;2.03;;
73113;SDS011;61301;51.956;5.876;2023-08-31T01:53:34;2.40;;;2.00;;
73113;SDS011;61301;51.956;5.876;2023-08-31T01:56:00;1.80;;;1.67;;
73113;SDS011;61301;51.956;5.876;2023-08-31T01:58:27;7.97;;;4.05;;
73113;SDS011;61301;51.956;5.876;2023-08-31T02:00:53;3.85;;;3.03;;
73113;SDS011;61301;51.956;5.876;2023-08-31T02:03:19;4.13;;;2.55;;
73113;SDS011;61301;51.956;5.876;2023-08-31T02:05:45;2.72;;;2.10;;
73113;SDS011;61301;51.956;5.876;2023-08-31T02:08:11;2.72;;;1.48;;
73113;SDS011;61301;51.956;5.876;2023-08-31T02:10:37;3.08;;;1.80;;
73113;SDS011;61301;51.956;5.876;2023-08-31T02:13:03;2.63;;;2.05;;
73113;SDS011;61301;51.956;5.876;2023-08-31T02:15:29;1.92;;;1.73;;
73113;SDS011;61301;51.956;5.876;2023-08-31T02:17:58;2.35;;;1.80;;
73113;SDS011;61301;51.956;5.876;2023-08-31T02:20:25;2.00;;;1.45;;
73113;SDS011;61301;51.956;5.876;2023-08-31T02:22:52;1.83;;;1.65;;
73113;SDS011;61301;51.956;5.876;2023-08-31T02:25:18;7.63;;;3.75;;
73113;SDS011;61301;51.956;5.876;2023-08-31T02:27:45;5.18;;;4.18;;
73113;SDS011;61301;51.956;5.876;2023-08-31T02:30:11;2.92;;;2.60;;
73113;SDS011;61301;51.956;5.876;2023-08-31T02:32:37;3.38;;;2.75;;
73113;SDS011;61301;51.956;5.876;2023-08-31T02:35:04;1.63;;;1.30;;
73113;SDS011;61301;51.956;5.876;2023-08-31T02:37:30;2.05;;;1.85;;
73113;SDS011;61301;51.956;5.876;2023-08-31T02:39:56;2.67;;;1.90;;
73113;SDS011;61301;51.956;5.876;2023-08-31T02:42:22;3.63;;;2.30;;
73113;SDS011;61301;51.956;5.876;2023-08-31T02:44:51;3.72;;;2.85;;
73113;SDS011;61301;51.956;5.876;2023-08-31T02:47:19;5.53;;;3.65;;
73113;SDS011;61301;51.956;5.876;2023-08-31T02:49:45;2.38;;;2.03;;
73113;SDS011;61301;51.956;5.876;2023-08-31T02:52:13;1.85;;;1.65;;
73113;SDS011;61301;51.956;5.876;2023-08-31T02:54:39;3.33;;;1.52;;
73113;SDS011;61301;51.956;5.876;2023-08-31T02:57:05;1.85;;;1.27;;
73113;SDS011;61301;51.956;5.876;2023-08-31T02:59:32;1.00;;;0.90;;
73113;SDS011;61301;51.956;5.876;2023-08-31T03:02:02;2.95;;;1.80;;
73113;SDS011;61301;51.956;5.876;2023-08-31T03:04:29;1.98;;;1.60;;
73113;SDS011;61301;51.956;5.876;2023-08-31T03:06:55;3.33;;;2.92;;
73113;SDS011;61301;51.956;5.876;2023-08-31T03:09:21;4.20;;;3.20;;
73113;SDS011;61301;51.956;5.876;2023-08-31T03:11:47;4.90;;;4.03;;
73113;SDS011;61301;51.956;5.876;2023-08-31T03:14:13;2.25;;;2.05;;
73113;SDS011;61301;51.956;5.876;2023-08-31T03:16:40;2.90;;;1.67;;
73113;SDS011;61301;51.956;5.876;2023-08-31T03:19:06;0.88;;;0.85;;
73113;SDS011;61301;51.956;5.876;2023-08-31T03:21:32;1.08;;;0.80;;
73113;SDS011;61301;51.956;5.876;2023-08-31T03:23:59;0.77;;;0.65;;
73113;SDS011;61301;51.956;5.876;2023-08-31T03:26:25;1.45;;;1.17;;
73113;SDS011;61301;51.956;5.876;2023-08-31T03:28:51;1.08;;;0.98;;
73113;SDS011;61301;51.956;5.876;2023-08-31T03:31:17;1.55;;;1.10;;
73113;SDS011;61301;51.956;5.876;2023-08-31T03:33:43;1.27;;;1.00;;
73113;SDS011;61301;51.956;5.876;2023-08-31T03:36:09;1.83;;;1.00;;
73113;SDS011;61301;51.956;5.876;2023-08-31T03:38:36;2.65;;;1.85;;
73113;SDS011;61301;51.956;5.876;2023-08-31T03:41:06;2.17;;;1.50;;
73113;SDS011;61301;51.956;5.876;2023-08-31T03:43:32;3.25;;;2.45;;
73113;SDS011;61301;51.956;5.876;2023-08-31T03:46:00;5.18;;;3.92;;
73113;SDS011;61301;51.956;5.876;2023-08-31T03:48:26;4.60;;;4.15;;
73113;SDS011;61301;51.956;5.876;2023-08-31T03:50:53;2.63;;;2.42;;
73113;SDS011;61301;51.956;5.876;2023-08-31T03:53:21;2.00;;;1.80;;
73113;SDS011;61301;51.956;5.876;2023-08-31T03:55:48;1.77;;;1.10;;
73113;SDS011;61301;51.956;5.876;2023-08-31T03:58:14;6.80;;;2.25;;
73113;SDS011;61301;51.956;5.876;2023-08-31T04:00:44;3.20;;;2.30;;
73113;SDS011;61301;51.956;5.876;2023-08-31T04:03:10;2.38;;;1.90;;
73113;SDS011;61301;51.956;5.876;2023-08-31T04:05:36;1.75;;;1.52;;
73113;SDS011;61301;51.956;5.876;2023-08-31T04:08:02;1.23;;;0.90;;
73113;SDS011;61301;51.956;5.876;2023-08-31T04:10:28;1.98;;;1.67;;
73113;SDS011;61301;51.956;5.876;2023-08-31T04:12:57;1.77;;;1.40;;
73113;SDS011;61301;51.956;5.876;2023-08-31T04:15:23;3.28;;;2.08;;
73113;SDS011;61301;51.956;5.876;2023-08-31T04:17:49;2.30;;;1.92;;
73113;SDS011;61301;51.956;5.876;2023-08-31T04:20:15;1.38;;;1.27;;
73113;SDS011;61301;51.956;5.876;2023-08-31T04:22:41;0.88;;;0.82;;
73113;SDS011;61301;51.956;5.876;2023-08-31T04:25:07;1.10;;;1.00;;
73113;SDS011;61301;51.956;5.876;2023-08-31T04:27:33;1.00;;;0.90;;
73113;SDS011;61301;51.956;5.876;2023-08-31T04:30:03;1.60;;;1.27;;
73113;SDS011;61301;51.956;5.876;2023-08-31T04:32:29;1.30;;;0.85;;
73113;SDS011;61301;51.956;5.876;2023-08-31T04:34:55;2.60;;;2.20;;
73113;SDS011;61301;51.956;5.876;2023-08-31T04:37:21;2.30;;;1.77;;
73113;SDS011;61301;51.956;5.876;2023-08-31T04:39:47;2.03;;;1.38;;
73113;SDS011;61301;51.956;5.876;2023-08-31T04:42:13;1.83;;;1.55;;
73113;SDS011;61301;51.956;5.876;2023-08-31T04:44:39;2.13;;;1.85;;
73113;SDS011;61301;51.956;5.876;2023-08-31T04:47:05;2.67;;;1.85;;
73113;SDS011;61301;51.956;5.876;2023-08-31T04:49:31;3.15;;;1.95;;
73113;SDS011;61301;51.956;5.876;2023-08-31T04:51:57;2.78;;;2.28;;
73113;SDS011;61301;51.956;5.876;2023-08-31T04:54:23;3.65;;;2.85;;
73113;SDS011;61301;51.956;5.876;2023-08-31T04:56:49;2.65;;;2.03;;
73113;SDS011;61301;51.956;5.876;2023-08-31T04:59:15;4.90;;;2.95;;
73113;SDS011;61301;51.956;5.876;2023-08-31T05:01:41;3.45;;;2.70;;
73113;SDS011;61301;51.956;5.876;2023-08-31T05:04:07;4.95;;;3.53;;
73113;SDS011;61301;51.956;5.876;2023-08-31T05:06:33;3.67;;;2.95;;
73113;SDS011;61301;51.956;5.876;2023-08-31T05:08:59;5.78;;;5.10;;
73113;SDS011;61301;51.956;5.876;2023-08-31T05:11:26;8.18;;;4.65;;
73113;SDS011;61301;51.956;5.876;2023-08-31T05:13:52;4.55;;;4.00;;
73113;SDS011;61301;51.956;5.876;2023-08-31T05:16:18;5.80;;;4.90;;
73113;SDS011;61301;51.956;5.876;2023-08-31T05:18:43;4.45;;;3.75;;
73113;SDS011;61301;51.956;5.876;2023-08-31T05:21:09;5.75;;;4.45;;
73113;SDS011;61301;51.956;5.876;2023-08-31T05:23:35;5.32;;;4.10;;
73113;SDS011;61301;51.956;5.876;2023-08-31T05:26:02;6.18;;;4.65;;
73113;SDS011;61301;51.956;5.876;2023-08-31T05:28:28;6.57;;;4.50;;
73113;SDS011;61301;51.956;5.876;2023-08-31T05:30:55;9.32;;;7.13;;
73113;SDS011;61301;51.956;5.876;2023-08-31T05:33:23;7.53;;;6.70;;
73113;SDS011;61301;51.956;5.876;2023-08-31T05:35:51;9.88;;;6.57;;
73113;SDS011;61301;51.956;5.876;2023-08-31T05:38:17;7.60;;;5.88;;
73113;SDS011;61301;51.956;5.876;2023-08-31T05:40:43;7.93;;;6.38;;
73113;SDS011;61301;51.956;5.876;2023-08-31T05:43:13;6.00;;;4.80;;
73113;SDS011;61301;51.956;5.876;2023-08-31T05:45:39;6.00;;;4.72;;
73113;SDS011;61301;51.956;5.876;2023-08-31T05:48:05;5.20;;;4.05;;
73113;SDS011;61301;51.956;5.876;2023-08-31T05:50:33;6.70;;;5.85;;
73113;SDS011;61301;51.956;5.876;2023-08-31T05:52:59;8.13;;;7.32;;
73113;SDS011;61301;51.956;5.876;2023-08-31T05:55:25;8.85;;;7.25;;
73113;SDS011;61301;51.956;5.876;2023-08-31T05:57:51;9.80;;;7.70;;
73113;SDS011;61301;51.956;5.876;2023-08-31T06:00:17;6.32;;;5.72;;
73113;SDS011;61301;51.956;5.876;2023-08-31T06:02:43;7.72;;;5.57;;
73113;SDS011;61301;51.956;5.876;2023-08-31T06:05:12;6.30;;;5.63;;
73113;SDS011;61301;51.956;5.876;2023-08-31T06:07:38;10.07;;;7.95;;
73113;SDS011;61301;51.956;5.876;2023-08-31T06:10:05;10.25;;;7.78;;
73113;SDS011;61301;51.956;5.876;2023-08-31T06:12:31;8.40;;;7.57;;
73113;SDS011;61301;51.956;5.876;2023-08-31T06:14:57;8.55;;;6.90;;
73113;SDS011;61301;51.956;5.876;2023-08-31T06:17:23;6.90;;;6.20;;
73113;SDS011;61301;51.956;5.876;2023-08-31T06:19:49;8.43;;;7.50;;
73113;SDS011;61301;51.956;5.876;2023-08-31T06:22:15;10.63;;;7.45;;
73113;SDS011;61301;51.956;5.876;2023-08-31T06:24:41;8.07;;;6.00;;
73113;SDS011;61301;51.956;5.876;2023-08-31T06:27:08;8.68;;;7.13;;
73113;SDS011;61301;51.956;5.876;2023-08-31T06:29:33;7.97;;;6.20;;
73113;SDS011;61301;51.956;5.876;2023-08-31T06:31:59;8.82;;;6.35;;
73113;SDS011;61301;51.956;5.876;2023-08-31T06:34:25;9.07;;;6.85;;
73113;SDS011;61301;51.956;5.876;2023-08-31T06:36:51;8.05;;;6.78;;
73113;SDS011;61301;51.956;5.876;2023-08-31T06:39:17;9.27;;;6.78;;
73113;SDS011;61301;51.956;5.876;2023-08-31T06:41:43;7.88;;;6.90;;
73113;SDS011;61301;51.956;5.876;2023-08-31T06:44:09;7.63;;;6.82;;
73113;SDS011;61301;51.956;5.876;2023-08-31T06:46:35;5.72;;;5.15;;
73113;SDS011;61301;51.956;5.876;2023-08-31T06:49:04;4.65;;;4.05;;
73113;SDS011;61301;51.956;5.876;2023-08-31T06:51:33;7.82;;;6.05;;
73113;SDS011;61301;51.956;5.876;2023-08-31T06:53:59;8.13;;;6.05;;
73113;SDS011;61301;51.956;5.876;2023-08-31T06:56:32;7.88;;;5.70;;
73113;SDS011;61301;51.956;5.876;2023-08-31T06:59:01;9.48;;;7.30;;
73113;SDS011;61301;51.956;5.876;2023-08-31T07:01:28;7.72;;;5.88;;
73113;SDS011;61301;51.956;5.876;2023-08-31T07:03:55;8.07;;;7.15;;
73113;SDS011;61301;51.956;5.876;2023-08-31T07:06:21;9.30;;;6.45;;
73113;SDS011;61301;51.956;5.876;2023-08-31T07:08:47;8.02;;;5.60;;
73113;SDS011;61301;51.956;5.876;2023-08-31T07:11:14;8.82;;;5.68;;
73113;SDS011;61301;51.956;5.876;2023-08-31T07:13:40;8.40;;;5.38;;
73113;SDS011;61301;51.956;5.876;2023-08-31T07:16:07;8.57;;;7.28;;
73113;SDS011;61301;51.956;5.876;2023-08-31T07:18:33;7.45;;;6.55;;
73113;SDS011;61301;51.956;5.876;2023-08-31T07:20:59;10.82;;;8.25;;
73113;SDS011;61301;51.956;5.876;2023-08-31T07:23:25;6.75;;;4.80;;
73113;SDS011;61301;51.956;5.876;2023-08-31T07:25:51;7.90;;;5.35;;
73113;SDS011;61301;51.956;5.876;2023-08-31T07:28:17;7.55;;;6.45;;
73113;SDS011;61301;51.956;5.876;2023-08-31T07:30:43;8.52;;;5.30;;
73113;SDS011;61301;51.956;5.876;2023-08-31T07:33:09;6.85;;;5.30;;
73113;SDS011;61301;51.956;5.876;2023-08-31T07:35:35;4.55;;;4.15;;
73113;SDS011;61301;51.956;5.876;2023-08-31T07:38:01;5.20;;;4.65;;
73113;SDS011;61301;51.956;5.876;2023-08-31T07:40:27;6.10;;;3.90;;
73113;SDS011;61301;51.956;5.876;2023-08-31T07:42:53;7.22;;;6.22;;
73113;SDS011;61301;51.956;5.876;2023-08-31T07:45:19;9.73;;;6.20;;
73113;SDS011;61301;51.956;5.876;2023-08-31T07:47:45;5.95;;;5.13;;
73113;SDS011;61301;51.956;5.876;2023-08-31T07:50:11;6.65;;;5.68;;
73113;SDS011;61301;51.956;5.876;2023-08-31T07:52:37;8.75;;;5.07;;
73113;SDS011;61301;51.956;5.876;2023-08-31T07:55:04;8.00;;;5.93;;
73113;SDS011;61301;51.956;5.876;2023-08-31T07:57:30;6.63;;;5.40;;
73113;SDS011;61301;51.956;5.876;2023-08-31T07:59:56;7.72;;;6.78;;
73113;SDS011;61301;51.956;5.876;2023-08-31T08:02:22;8.13;;;5.18;;
73113;SDS011;61301;51.956;5.876;2023-08-31T08:04:48;7.00;;;5.22;;
73113;SDS011;61301;51.956;5.876;2023-08-31T08:07:14;6.93;;;5.43;;
73113;SDS011;61301;51.956;5.876;2023-08-31T08:09:40;8.57;;;5.88;;
73113;SDS011;61301;51.956;5.876;2023-08-31T08:12:06;9.38;;;5.25;;
73113;SDS011;61301;51.956;5.876;2023-08-31T08:14:32;8.60;;;6.00;;
73113;SDS011;61301;51.956;5.876;2023-08-31T08:16:59;4.00;;;3.60;;
73113;SDS011;61301;51.956;5.876;2023-08-31T08:19:25;2.53;;;2.25;;
73113;SDS011;61301;51.956;5.876;2023-08-31T08:21:51;5.68;;;3.97;;
73113;SDS011;61301;51.956;5.876;2023-08-31T08:24:17;5.70;;;5.10;;
73113;SDS011;61301;51.956;5.876;2023-08-31T08:26:43;5.95;;;4.32;;
73113;SDS011;61301;51.956;5.876;2023-08-31T08:29:10;6.97;;;5.43;;
73113;SDS011;61301;51.956;5.876;2023-08-31T08:31:36;10.32;;;7.20;;
73113;SDS011;61301;51.956;5.876;2023-08-31T08:34:02;8.32;;;5.78;;
73113;SDS011;61301;51.956;5.876;2023-08-31T08:36:29;11.18;;;6.10;;
73113;SDS011;61301;51.956;5.876;2023-08-31T08:38:55;7.93;;;5.30;;
73113;SDS011;61301;51.956;5.876;2023-08-31T08:41:22;5.20;;;4.63;;
73113;SDS011;61301;51.956;5.876;2023-08-31T08:43:50;4.65;;;3.38;;
73113;SDS011;61301;51.956;5.876;2023-08-31T08:46:17;8.77;;;5.45;;
73113;SDS011;61301;51.956;5.876;2023-08-31T08:48:44;7.20;;;5.03;;
73113;SDS011;61301;51.956;5.876;2023-08-31T08:51:12;6.10;;;4.68;;
73113;SDS011;61301;51.956;5.876;2023-08-31T08:53:40;6.20;;;5.60;;
73113;SDS011;61301;51.956;5.876;2023-08-31T08:56:08;9.88;;;6.32;;
73113;SDS011;61301;51.956;5.876;2023-08-31T08:58:35;6.78;;;4.82;;
73113;SDS011;61301;51.956;5.876;2023-08-31T09:01:01;9.50;;;5.32;;
73113;SDS011;61301;51.956;5.876;2023-08-31T09:03:27;7.55;;;4.70;;
73113;SDS011;61301;51.956;5.876;2023-08-31T09:05:53;7.22;;;5.03;;
73113;SDS011;61301;51.956;5.876;2023-08-31T09:08:26;5.07;;;4.57;;
73113;SDS011;61301;51.956;5.876;2023-08-31T09:10:55;9.13;;;3.80;;
73113;SDS011;61301;51.956;5.876;2023-08-31T09:13:25;5.43;;;3.90;;
73113;SDS011;61301;51.956;5.876;2023-08-31T09:15:54;5.40;;;3.72;;
73113;SDS011;61301;51.956;5.876;2023-08-31T09:18:26;6.82;;;4.47;;
73113;SDS011;61301;51.956;5.876;2023-08-31T09:20:57;6.80;;;4.15;;
73113;SDS011;61301;51.956;5.876;2023-08-31T09:23:23;5.50;;;4.70;;
73113;SDS011;61301;51.956;5.876;2023-08-31T09:25:51;5.05;;;3.00;;
73113;SDS011;61301;51.956;5.876;2023-08-31T09:28:20;8.70;;;4.75;;
73113;SDS011;61301;51.956;5.876;2023-08-31T09:30:47;5.00;;;3.58;;
73113;SDS011;61301;51.956;5.876;2023-08-31T09:33:15;3.80;;;3.17;;
73113;SDS011;61301;51.956;5.876;2023-08-31T09:35:52;5.13;;;3.10;;
73113;SDS011;61301;51.956;5.876;2023-08-31T09:38:21;5.15;;;2.63;;
73113;SDS011;61301;51.956;5.876;2023-08-31T09:40:47;5.28;;;2.88;;
73113;SDS011;61301;51.956;5.876;2023-08-31T09:43:19;6.97;;;3.05;;
73113;SDS011;61301;51.956;5.876;2023-08-31T09:45:49;3.15;;;2.60;;
73113;SDS011;61301;51.956;5.876;2023-08-31T09:48:18;3.45;;;1.80;;
73113;SDS011;61301;51.956;5.876;2023-08-31T09:50:45;4.07;;;2.25;;
73113;SDS011;61301;51.956;5.876;2023-08-31T09:53:11;4.20;;;3.03;;
73113;SDS011;61301;51.956;5.876;2023-08-31T09:55:41;3.78;;;2.75;;
73113;SDS011;61301;51.956;5.876;2023-08-31T09:58:08;4.45;;;2.28;;
73113;SDS011;61301;51.956;5.876;2023-08-31T10:00:37;5.65;;;3.00;;
73113;SDS011;61301;51.956;5.876;2023-08-31T10:03:04;5.80;;;2.42;;
73113;SDS011;61301;51.956;5.876;2023-08-31T10:05:30;5.00;;;2.33;;
73113;SDS011;61301;51.956;5.876;2023-08-31T10:07:58;3.47;;;2.45;;
73113;SDS011;61301;51.956;5.876;2023-08-31T10:10:25;5.10;;;2.35;;
73113;SDS011;61301;51.956;5.876;2023-08-31T10:12:53;3.70;;;2.10;;
73113;SDS011;61301;51.956;5.876;2023-08-31T10:15:19;4.80;;;2.30;;
73113;SDS011;61301;51.956;5.876;2023-08-31T10:17:46;2.80;;;2.45;;
73113;SDS011;61301;51.956;5.876;2023-08-31T10:20:13;3.80;;;1.92;;
73113;SDS011;61301;51.956;5.876;2023-08-31T10:22:41;3.25;;;2.10;;
73113;SDS011;61301;51.956;5.876;2023-08-31T10:25:08;3.03;;;1.90;;
73113;SDS011;61301;51.956;5.876;2023-08-31T10:27:38;3.33;;;2.00;;
73113;SDS011;61301;51.956;5.876;2023-08-31T10:36:18;3.30;;;1.90;;
73113;SDS011;61301;51.956;5.876;2023-08-31T10:38:27;3.00;;;1.60;;
73113;SDS011;61301;51.956;5.876;2023-08-31T10:41:00;3.47;;;2.00;;
73113;SDS011;61301;51.956;5.876;2023-08-31T10:46:37;2.78;;;1.60;;
73113;SDS011;61301;51.956;5.876;2023-08-31T10:51:35;4.20;;;1.52;;
73113;SDS011;61301;51.956;5.876;2023-08-31T10:57:26;3.83;;;1.20;;
73113;SDS011;61301;51.956;5.876;2023-08-31T10:59:47;2.65;;;1.25;;
73113;SDS011;61301;51.956;5.876;2023-08-31T11:02:27;4.25;;;1.20;;
73113;SDS011;61301;51.956;5.876;2023-08-31T11:07:32;4.82;;;1.30;;
73113;SDS011;61301;51.956;5.876;2023-08-31T11:10:06;2.63;;;1.05;;
73113;SDS011;61301;51.956;5.876;2023-08-31T11:12:53;1.70;;;0.75;;
73113;SDS011;61301;51.956;5.876;2023-08-31T11:15:20;3.45;;;1.52;;
73113;SDS011;61301;51.956;5.876;2023-08-31T11:17:51;1.48;;;1.10;;
73113;SDS011;61301;51.956;5.876;2023-08-31T11:20:19;2.13;;;1.33;;
73113;SDS011;61301;51.956;5.876;2023-08-31T11:22:47;2.30;;;1.15;;
73113;SDS011;61301;51.956;5.876;2023-08-31T11:25:18;5.13;;;1.65;;
73113;SDS011;61301;51.956;5.876;2023-08-31T11:27:58;2.85;;;1.50;;
73113;SDS011;61301;51.956;5.876;2023-08-31T11:30:25;4.82;;;1.67;;
73113;SDS011;61301;51.956;5.876;2023-08-31T11:32:53;10.10;;;1.67;;
73113;SDS011;61301;51.956;5.876;2023-08-31T11:35:20;2.40;;;1.00;;
73113;SDS011;61301;51.956;5.876;2023-08-31T11:37:55;5.72;;;1.58;;
73113;SDS011;61301;51.956;5.876;2023-08-31T11:40:22;3.20;;;0.90;;
73113;SDS011;61301;51.956;5.876;2023-08-31T11:42:48;2.15;;;0.82;;
73113;SDS011;61301;51.956;5.876;2023-08-31T11:45:17;3.50;;;1.02;;
73113;SDS011;61301;51.956;5.876;2023-08-31T11:47:44;2.28;;;0.70;;
73113;SDS011;61301;51.956;5.876;2023-08-31T11:50:11;1.98;;;1.02;;
73113;SDS011;61301;51.956;5.876;2023-08-31T11:52:39;2.58;;;0.55;;
73113;SDS011;61301;51.956;5.876;2023-08-31T11:55:15;1.98;;;0.90;;
73113;SDS011;61301;51.956;5.876;2023-08-31T11:57:53;2.53;;;1.00;;
73113;SDS011;61301;51.956;5.876;2023-08-31T12:00:23;1.35;;;0.85;;
73113;SDS011;61301;51.956;5.876;2023-08-31T12:03:23;2.28;;;1.23;;
73113;SDS011;61301;51.956;5.876;2023-08-31T12:05:45;3.25;;;1.48;;
73113;SDS011;61301;51.956;5.876;2023-08-31T12:08:13;3.70;;;1.15;;
73113;SDS011;61301;51.956;5.876;2023-08-31T12:10:39;1.60;;;0.90;;
73113;SDS011;61301;51.956;5.876;2023-08-31T12:13:10;2.78;;;1.33;;
73113;SDS011;61301;51.956;5.876;2023-08-31T12:15:38;3.38;;;1.20;;
73113;SDS011;61301;51.956;5.876;2023-08-31T12:18:11;1.90;;;1.13;;
73113;SDS011;61301;51.956;5.876;2023-08-31T12:20:47;1.77;;;0.73;;
73113;SDS011;61301;51.956;5.876;2023-08-31T12:23:16;1.67;;;0.98;;
73113;SDS011;61301;51.956;5.876;2023-08-31T12:25:50;1.70;;;0.88;;
73113;SDS011;61301;51.956;5.876;2023-08-31T12:28:17;2.03;;;0.63;;
73113;SDS011;61301;51.956;5.876;2023-08-31T12:30:47;2.45;;;0.90;;
73113;SDS011;61301;51.956;5.876;2023-08-31T12:33:15;1.55;;;0.70;;
73113;SDS011;61301;51.956;5.876;2023-08-31T12:35:41;1.40;;;0.80;;
73113;SDS011;61301;51.956;5.876;2023-08-31T12:38:08;2.83;;;1.08;;
73113;SDS011;61301;51.956;5.876;2023-08-31T12:40:34;2.15;;;0.82;;
73113;SDS011;61301;51.956;5.876;2023-08-31T12:43:00;2.05;;;0.70;;
73113;SDS011;61301;51.956;5.876;2023-08-31T12:45:26;1.35;;;0.85;;
73113;SDS011;61301;51.956;5.876;2023-08-31T12:47:52;1.23;;;0.60;;
73113;SDS011;61301;51.956;5.876;2023-08-31T12:50:18;1.35;;;0.60;;
73113;SDS011;61301;51.956;5.876;2023-08-31T12:52:45;2.30;;;0.70;;
73113;SDS011;61301;51.956;5.876;2023-08-31T12:55:15;1.20;;;0.75;;
73113;SDS011;61301;51.956;5.876;2023-08-31T12:57:41;2.05;;;0.60;;
73113;SDS011;61301;51.956;5.876;2023-08-31T13:00:09;3.80;;;1.00;;
73113;SDS011;61301;51.956;5.876;2023-08-31T13:02:39;0.85;;;0.50;;
73113;SDS011;61301;51.956;5.876;2023-08-31T13:05:10;1.67;;;0.68;;
73113;SDS011;61301;51.956;5.876;2023-08-31T13:07:37;2.15;;;0.50;;
73113;SDS011;61301;51.956;5.876;2023-08-31T13:10:04;2.40;;;0.80;;
73113;SDS011;61301;51.956;5.876;2023-08-31T13:12:39;4.38;;;0.73;;
73113;SDS011;61301;51.956;5.876;2023-08-31T13:15:05;3.35;;;0.98;;
73113;SDS011;61301;51.956;5.876;2023-08-31T13:17:33;1.40;;;0.70;;
73113;SDS011;61301;51.956;5.876;2023-08-31T13:19:59;2.83;;;0.82;;
73113;SDS011;61301;51.956;5.876;2023-08-31T13:22:25;4.93;;;0.90;;
73113;SDS011;61301;51.956;5.876;2023-08-31T13:24:51;1.85;;;0.70;;
73113;SDS011;61301;51.956;5.876;2023-08-31T13:27:17;1.85;;;0.60;;
73113;SDS011;61301;51.956;5.876;2023-08-31T13:29:44;2.42;;;1.10;;
73113;SDS011;61301;51.956;5.876;2023-08-31T13:32:10;2.15;;;0.80;;
73113;SDS011;61301;51.956;5.876;2023-08-31T13:34:36;1.42;;;0.90;;
73113;SDS011;61301;51.956;5.876;2023-08-31T13:37:02;2.50;;;0.80;;
73113;SDS011;61301;51.956;5.876;2023-08-31T13:39:33;3.10;;;0.70;;
73113;SDS011;61301;51.956;5.876;2023-08-31T13:42:01;1.83;;;0.70;;
73113;SDS011;61301;51.956;5.876;2023-08-31T13:44:29;2.15;;;0.80;;
73113;SDS011;61301;51.956;5.876;2023-08-31T13:46:55;2.08;;;0.82;;
73113;SDS011;61301;51.956;5.876;2023-08-31T13:49:21;2.75;;;0.90;;
73113;SDS011;61301;51.956;5.876;2023-08-31T13:51:47;3.53;;;1.10;;
73113;SDS011;61301;51.956;5.876;2023-08-31T13:54:13;2.00;;;0.63;;
73113;SDS011;61301;51.956;5.876;2023-08-31T13:56:39;1.33;;;0.47;;
73113;SDS011;61301;51.956;5.876;2023-08-31T13:59:05;2.17;;;0.80;;
73113;SDS011;61301;51.956;5.876;2023-08-31T14:01:31;2.13;;;0.82;;
73113;SDS011;61301;51.956;5.876;2023-08-31T14:03:57;2.75;;;0.95;;
73113;SDS011;61301;51.956;5.876;2023-08-31T14:06:23;2.67;;;1.00;;
73113;SDS011;61301;51.956;5.876;2023-08-31T14:08:49;2.97;;;0.80;;
73113;SDS011;61301;51.956;5.876;2023-08-31T14:11:15;4.10;;;1.10;;
73113;SDS011;61301;51.956;5.876;2023-08-31T14:13:43;2.20;;;0.85;;
73113;SDS011;61301;51.956;5.876;2023-08-31T14:16:09;1.50;;;0.60;;
73113;SDS011;61301;51.956;5.876;2023-08-31T14:18:35;2.25;;;0.88;;
73113;SDS011;61301;51.956;5.876;2023-08-31T14:21:01;2.20;;;0.93;;
73113;SDS011;61301;51.956;5.876;2023-08-31T14:23:29;1.42;;;0.70;;
73113;SDS011;61301;51.956;5.876;2023-08-31T14:26:02;1.60;;;0.60;;
73113;SDS011;61301;51.956;5.876;2023-08-31T14:28:29;1.58;;;0.70;;
73113;SDS011;61301;51.956;5.876;2023-08-31T14:30:55;2.58;;;1.05;;
73113;SDS011;61301;51.956;5.876;2023-08-31T14:33:21;2.38;;;1.10;;
73113;SDS011;61301;51.956;5.876;2023-08-31T14:35:49;3.22;;;0.77;;
73113;SDS011;61301;51.956;5.876;2023-08-31T14:38:21;0.82;;;0.55;;
73113;SDS011;61301;51.956;5.876;2023-08-31T14:40:48;2.90;;;1.23;;
73113;SDS011;61301;51.956;5.876;2023-08-31T14:43:15;1.30;;;0.70;;
73113;SDS011;61301;51.956;5.876;2023-08-31T14:45:41;2.45;;;0.70;;
73113;SDS011;61301;51.956;5.876;2023-08-31T14:48:07;1.48;;;0.90;;
73113;SDS011;61301;51.956;5.876;2023-08-31T14:50:33;1.25;;;0.70;;
73113;SDS011;61301;51.956;5.876;2023-08-31T14:52:59;1.10;;;0.60;;
73113;SDS011;61301;51.956;5.876;2023-08-31T14:55:25;2.72;;;0.98;;
73113;SDS011;61301;51.956;5.876;2023-08-31T14:57:51;3.10;;;1.15;;
73113;SDS011;61301;51.956;5.876;2023-08-31T15:00:17;6.80;;;1.35;;
73113;SDS011;61301;51.956;5.876;2023-08-31T15:02:44;2.03;;;0.90;;
73113;SDS011;61301;51.956;5.876;2023-08-31T15:05:12;0.85;;;0.60;;
73113;SDS011;61301;51.956;5.876;2023-08-31T15:07:38;2.65;;;0.88;;
73113;SDS011;61301;51.956;5.876;2023-08-31T15:10:04;2.42;;;0.80;;
73113;SDS011;61301;51.956;5.876;2023-08-31T15:12:31;4.45;;;0.90;;